Time;durP1;ratioP1;P1;durP2;ratioP2;P2;SDS_P1;SDS_P2;PMS_P1;PMS_P2;Temp;Humidity;BMP_temperature;BMP_pressure;BME280_temperature;BME280_humidity;BME280_pressure;Samples;Min_cycle;Max_cycle;Signal;HPM_P1;HPM_P2
2023/06/05 00:00:17;;;;;;;5.07;2.43;;;;;;;13.26;52.63;101624.03;4896695;29;20568;-72
2023/06/05 00:02:47;;;;;;;5.53;3.00;;;;;;;13.12;53.24;101633.97;4890964;29;20441;-71
2023/06/05 00:05:18;;;;;;;5.80;3.30;;;;;;;13.24;52.99;101620.66;4898673;29;20436;-70
2023/06/05 00:07:47;;;;;;;4.30;3.47;;;;;;;13.19;53.50;101617.72;4898108;29;20440;-71
2023/06/05 00:10:16;;;;;;;4.47;3.00;;;;;;;13.01;53.71;101624.50;4898350;29;20967;-71
2023/06/05 00:12:45;;;;;;;4.23;2.60;;;;;;;13.13;53.85;101632.94;4898760;29;20446;-70
2023/06/05 00:15:18;;;;;;;4.50;2.90;;;;;;;13.04;54.17;101631.41;4898914;29;20441;-72
2023/06/05 00:17:47;;;;;;;6.03;2.60;;;;;;;13.10;53.86;101629.75;4898595;29;20409;-70
2023/06/05 00:20:16;;;;;;;3.03;2.57;;;;;;;12.98;54.14;101632.19;4898748;29;20465;-71
2023/06/05 00:22:47;;;;;;;3.13;2.50;;;;;;;12.98;54.29;101633.03;4898846;29;20401;-72
2023/06/05 00:25:15;;;;;;;5.00;2.43;;;;;;;12.93;54.57;101629.22;4898836;29;20827;-71
2023/06/05 00:27:44;;;;;;;2.97;2.10;;;;;;;12.85;54.84;101640.25;4899129;29;20442;-71
2023/06/05 00:30:16;;;;;;;4.13;3.80;;;;;;;12.75;55.04;101637.91;4898298;29;20948;-70
2023/06/05 00:32:45;;;;;;;3.27;2.10;;;;;;;12.62;55.52;101633.22;4898841;29;20475;-73
2023/06/05 00:35:16;;;;;;;3.20;2.03;;;;;;;12.58;55.55;101639.25;4897622;29;20478;-71
2023/06/05 00:37:47;;;;;;;5.77;2.70;;;;;;;12.50;56.03;101629.34;4899482;29;20912;-73
2023/06/05 00:40:16;;;;;;;3.40;2.30;;;;;;;12.55;56.09;101632.31;4898122;29;20480;-72
2023/06/05 00:42:46;;;;;;;3.07;2.17;;;;;;;12.55;55.83;101634.19;4898770;29;20449;-72
2023/06/05 00:45:16;;;;;;;3.80;2.57;;;;;;;12.51;55.98;101631.03;4898666;29;20445;-72
2023/06/05 00:47:45;;;;;;;2.80;1.83;;;;;;;12.56;55.97;101631.28;4897381;29;20450;-72
2023/06/05 00:50:17;;;;;;;2.77;1.97;;;;;;;12.48;55.84;101626.03;4897732;29;20444;-71
2023/06/05 00:52:47;;;;;;;2.30;2.07;;;;;;;12.48;55.74;101626.03;4900172;29;20441;-72
2023/06/05 00:55:16;;;;;;;2.80;2.00;;;;;;;12.55;55.66;101629.59;4899502;29;20584;-72
2023/06/05 00:57:45;;;;;;;3.20;2.10;;;;;;;12.40;56.02;101623.44;4897100;29;20953;-72
2023/06/05 01:00:16;;;;;;;2.80;2.20;;;;;;;12.43;55.81;101628.47;4898903;29;20800;-73
2023/06/05 01:02:45;;;;;;;3.00;2.17;;;;;;;12.44;55.86;101624.72;4898146;29;20434;-72
2023/06/05 01:05:15;;;;;;;3.73;2.37;;;;;;;12.46;55.85;101624.53;4897599;29;20894;-73
2023/06/05 01:07:44;;;;;;;2.80;2.10;;;;;;;12.46;55.64;101622.66;4898659;29;20439;-72
2023/06/05 01:10:13;;;;;;;3.70;2.20;;;;;;;12.44;55.66;101621.19;4897571;29;20561;-72
2023/06/05 01:12:53;;;;;;;4.80;1.93;;;;;;;12.39;55.79;101629.88;4895998;29;20438;-70
2023/06/05 01:15:28;;;;;;;3.20;2.20;;;;;;;12.47;55.31;101624.34;4897348;29;20458;-72
2023/06/05 01:17:58;;;;;;;1.97;1.77;;;;;;;12.47;55.35;101615.34;4891504;29;20434;-72
2023/06/05 01:20:34;;;;;;;3.10;2.03;;;;;;;12.43;55.52;101622.22;4893933;29;20872;-71
2023/06/05 01:23:06;;;;;;;4.70;1.90;;;;;;;12.35;55.82;101620.47;4892039;29;20444;-72
2023/06/05 01:25:36;;;;;;;3.43;2.03;;;;;;;12.33;56.03;101625.25;4895672;29;20503;-72
2023/06/05 01:28:11;;;;;;;2.00;1.67;;;;;;;12.32;55.78;101618.16;4893259;29;20442;-72
2023/06/05 01:30:46;;;;;;;3.40;2.03;;;;;;;12.25;56.30;101621.84;4896125;29;20466;-70
2023/06/05 01:33:21;;;;;;;6.13;4.53;;;;;;;12.22;56.67;101622.22;4896345;29;20446;-72
2023/06/05 01:35:51;;;;;;;4.60;3.20;;;;;;;12.14;56.67;101621.34;4897195;29;20472;-71
2023/06/05 01:38:23;;;;;;;3.53;3.23;;;;;;;12.07;56.86;101617.72;4896901;29;20411;-73
2023/06/05 01:40:52;;;;;;;4.73;2.30;;;;;;;12.09;57.08;101620.25;4902148;29;20469;-71
2023/06/05 01:43:22;;;;;;;5.03;3.80;;;;;;;12.12;57.04;101617.13;4895067;29;20869;-71
2023/06/05 01:45:52;;;;;;;4.13;2.97;;;;;;;12.13;56.96;101621.53;4897413;29;20441;-74
2023/06/05 01:48:23;;;;;;;2.87;2.13;;;;;;;12.05;57.29;101616.25;4896079;29;20429;-72
2023/06/05 01:50:57;;;;;;;3.17;2.23;;;;;;;12.00;57.64;101616.00;4895753;29;20482;-73
2023/06/05 01:53:28;;;;;;;2.80;2.17;;;;;;;11.96;57.71;101615.50;4896652;29;20831;-73
2023/06/05 01:55:58;;;;;;;2.80;1.70;;;;;;;11.90;58.04;101616.31;4896223;29;20470;-71
2023/06/05 01:58:27;;;;;;;3.87;2.07;;;;;;;11.82;58.20;101612.84;4899066;29;20422;-71
2023/06/05 02:00:57;;;;;;;3.47;2.60;;;;;;;11.81;58.35;101611.22;4894772;29;20470;-74
2023/06/05 02:03:28;;;;;;;2.30;1.87;;;;;;;11.72;58.90;101607.72;4895559;29;20970;-73
2023/06/05 02:05:57;;;;;;;3.10;2.03;;;;;;;11.68;58.84;101604.56;4903898;29;21069;-72
2023/06/05 02:08:28;;;;;;;6.27;2.27;;;;;;;11.61;59.59;101611.81;4895299;29;20409;-74
2023/06/05 02:10:57;;;;;;;3.77;1.97;;;;;;;11.58;59.34;101603.19;4895326;29;20626;-73
2023/06/05 02:13:27;;;;;;;6.90;2.10;;;;;;;11.52;59.56;101606.69;4896503;29;20444;-73
2023/06/05 02:15:57;;;;;;;2.60;1.70;;;;;;;11.53;59.51;101602.91;4909304;29;20982;-73
2023/06/05 02:18:27;;;;;;;2.63;1.83;;;;;;;11.56;59.62;101592.56;4895923;29;20425;-73
2023/06/05 02:20:57;;;;;;;3.97;2.30;;;;;;;11.54;59.81;101600.03;4902832;29;20443;-73
2023/06/05 02:23:27;;;;;;;1.97;1.70;;;;;;;11.54;59.87;101591.06;4895110;29;20562;-72
2023/06/05 02:25:56;;;;;;;2.80;2.00;;;;;;;11.51;59.93;101586.88;4893290;29;20458;-73
2023/06/05 02:28:26;;;;;;;2.73;1.80;;;;;;;11.46;60.05;101592.03;4895589;29;20508;-73
2023/06/05 02:30:56;;;;;;;3.80;2.40;;;;;;;11.46;60.47;101585.75;4894404;29;20461;-72
2023/06/05 02:33:26;;;;;;;3.10;2.47;;;;;;;11.50;60.09;101576.22;4895842;29;20956;-73
2023/06/05 02:35:56;;;;;;;2.50;2.20;;;;;;;11.57;60.27;101577.13;4894937;29;20474;-74
2023/06/05 02:38:26;;;;;;;4.67;2.17;;;;;;;11.51;60.50;101576.03;4894665;29;20434;-71
2023/06/05 02:40:57;;;;;;;3.20;2.30;;;;;;;11.44;60.75;101582.38;4894260;29;20425;-72
2023/06/05 02:43:26;;;;;;;3.30;2.33;;;;;;;11.45;60.75;101576.78;4908899;29;20458;-71
2023/06/05 02:45:55;;;;;;;4.00;2.50;;;;;;;11.36;61.01;101586.06;4894363;29;20462;-73
2023/06/05 02:48:24;;;;;;;3.50;1.90;;;;;;;11.43;60.68;101591.53;4895585;29;20416;-73
2023/06/05 02:50:55;;;;;;;4.10;3.07;;;;;;;11.37;60.90;101581.50;4894849;29;20899;-73
2023/06/05 02:53:25;;;;;;;4.03;2.10;;;;;;;11.32;61.16;101584.78;4894378;29;20479;-73
2023/06/05 02:55:55;;;;;;;3.00;1.93;;;;;;;11.25;61.16;101578.41;4894011;29;20448;-72
2023/06/05 02:58:28;;;;;;;2.77;2.00;;;;;;;11.21;61.35;101582.53;4894833;29;20420;-72
2023/06/05 03:01:01;;;;;;;2.93;2.27;;;;;;;11.22;60.89;101579.66;4895256;29;20441;-72
2023/06/05 03:03:37;;;;;;;2.07;1.87;;;;;;;11.29;60.85;101582.44;4891396;29;20458;-72
2023/06/05 03:06:07;;;;;;;4.77;2.83;;;;;;;11.33;60.62;101587.28;4895655;29;20472;-72
2023/06/05 03:08:42;;;;;;;5.73;1.97;;;;;;;11.27;60.69;101581.78;4893694;29;20967;-72
2023/06/05 03:11:15;;;;;;;2.97;1.70;;;;;;;11.31;60.83;101583.94;4894463;29;20891;-73
2023/06/05 03:14:37;;;;;;;2.40;1.50;;;;;;;11.59;60.18;101583.19;4894304;29;20461;-73
2023/06/05 03:17:08;;;;;;;3.00;2.33;;;;;;;11.65;59.54;101585.13;4895195;29;20980;-73
2023/06/05 03:19:38;;;;;;;2.50;2.07;;;;;;;11.59;59.58;101575.91;4894532;29;20955;-73
2023/06/05 03:22:08;;;;;;;3.57;2.27;;;;;;;11.59;60.08;101581.31;4894376;29;20442;-72
2023/06/05 03:24:39;;;;;;;4.17;2.37;;;;;;;11.66;59.42;101582.25;4894740;29;20435;-74
2023/06/05 03:27:10;;;;;;;4.60;2.30;;;;;;;11.74;59.11;101581.31;4894570;29;20489;-73
2023/06/05 03:29:39;;;;;;;2.30;1.80;;;;;;;11.79;59.03;101573.44;4894150;29;20446;-73
2023/06/05 03:32:10;;;;;;;4.47;1.93;;;;;;;11.84;58.71;101572.84;4895092;29;21043;-73
2023/06/05 03:34:42;;;;;;;2.80;2.10;;;;;;;12.36;57.56;101569.72;4894134;29;20488;-73
2023/06/05 03:37:11;;;;;;;3.17;1.97;;;;;;;12.94;55.57;101571.16;4897164;29;20868;-73
2023/06/05 03:39:40;;;;;;;6.60;2.00;;;;;;;13.73;53.79;101576.91;4899001;29;20566;-73
2023/06/05 03:42:11;;;;;;;3.30;2.00;;;;;;;14.71;50.73;101576.94;4898354;29;20480;-72
2023/06/05 03:44:40;;;;;;;4.43;2.73;;;;;;;15.37;48.80;101579.44;4898027;29;20537;-72
2023/06/05 03:47:11;;;;;;;5.03;2.73;;;;;;;15.74;47.75;101575.03;4901900;29;20525;-72
2023/06/05 03:49:45;;;;;;;2.67;1.77;;;;;;;16.21;46.40;101578.28;4897967;29;20516;-73
2023/06/05 03:52:17;;;;;;;3.67;2.53;;;;;;;16.64;45.09;101573.72;4897839;29;20516;-73
2023/06/05 03:54:47;;;;;;;3.13;2.43;;;;;;;16.78;44.76;101574.41;4899512;29;20441;-72
2023/06/05 03:57:16;;;;;;;4.33;2.40;;;;;;;16.99;44.12;101573.97;4898267;29;20454;-72
2023/06/05 03:59:46;;;;;;;5.70;2.53;;;;;;;16.75;44.91;101581.16;4907278;29;20887;-71
2023/06/05 04:02:17;;;;;;;2.73;1.70;;;;;;;17.25;43.00;101575.53;4898137;29;20472;-72
2023/06/05 04:04:46;;;;;;;2.60;1.70;;;;;;;17.79;42.14;101578.19;4896620;29;20462;-70
2023/06/05 04:07:15;;;;;;;4.50;1.73;;;;;;;18.07;40.81;101579.44;4899288;29;20424;-72
2023/06/05 04:09:44;;;;;;;4.00;2.83;;;;;;;18.14;41.30;101581.03;4896699;29;20842;-71
2023/06/05 04:12:14;;;;;;;5.27;2.40;;;;;;;18.53;40.08;101567.72;4897400;29;20446;-72
2023/06/05 04:14:44;;;;;;;7.37;2.80;;;;;;;18.67;39.75;101580.97;4897920;29;20430;-72
2023/06/05 04:17:14;;;;;;;3.23;2.10;;;;;;;18.88;39.29;101582.25;4895201;29;20956;-73
2023/06/05 04:19:45;;;;;;;3.57;2.33;;;;;;;18.77;39.67;101583.09;4895532;29;20503;-72
2023/06/05 04:22:14;;;;;;;4.67;2.63;;;;;;;19.36;38.60;101584.66;4897863;29;20512;-72
2023/06/05 04:24:44;;;;;;;3.30;1.90;;;;;;;19.46;38.15;101587.63;4897575;29;20442;-72
2023/06/05 04:27:14;;;;;;;3.67;2.50;;;;;;;19.74;37.85;101589.56;4899254;29;20515;-73
2023/06/05 04:29:44;;;;;;;5.50;2.70;;;;;;;19.99;37.24;101593.84;4899016;29;20792;-72
2023/06/05 04:32:16;;;;;;;3.47;2.60;;;;;;;20.17;36.86;101591.69;4898063;29;20500;-72
2023/06/05 04:34:47;;;;;;;4.83;2.80;;;;;;;20.29;37.07;101589.69;4897465;29;20459;-72
2023/06/05 04:37:17;;;;;;;5.47;2.90;;;;;;;20.25;36.53;101596.78;4897885;29;21145;-71
2023/06/05 04:39:46;;;;;;;3.50;2.10;;;;;;;20.54;36.21;101585.72;4898852;29;20540;-71
2023/06/05 04:42:17;;;;;;;4.27;2.40;;;;;;;20.73;36.03;101589.84;4898432;29;20423;-70
2023/06/05 04:44:57;;;;;;;3.17;2.13;;;;;;;20.63;35.85;101592.44;4895733;29;20531;-69
2023/06/05 04:47:28;;;;;;;3.33;2.20;;;;;;;20.42;36.20;101595.97;4896639;29;20497;-68
2023/06/05 04:50:00;;;;;;;4.23;2.37;;;;;;;20.97;35.73;101588.53;4898057;29;20604;-69
2023/06/05 04:52:30;;;;;;;4.67;2.53;;;;;;;21.20;35.11;101596.59;4897451;29;20452;-71
2023/06/05 04:55:01;;;;;;;3.90;2.57;;;;;;;21.53;34.24;101589.28;4896731;29;20451;-69
2023/06/05 04:57:32;;;;;;;5.20;3.10;;;;;;;21.43;34.69;101579.00;4896541;29;20441;-69
2023/06/05 05:00:07;;;;;;;4.70;2.50;;;;;;;21.81;34.25;101589.03;4890920;29;20904;-68
2023/06/05 05:02:37;;;;;;;4.77;3.17;;;;;;;22.14;33.95;101589.94;4894806;29;20997;-69
2023/06/05 05:05:13;;;;;;;8.30;2.60;;;;;;;21.69;33.96;101582.84;4895547;29;20478;-69
2023/06/05 05:07:44;;;;;;;11.20;2.63;;;;;;;21.98;34.18;101587.03;4896180;29;20447;-69
2023/06/05 05:10:14;;;;;;;5.70;2.90;;;;;;;22.18;33.87;101583.63;4897496;29;20470;-68
2023/06/05 05:12:44;;;;;;;6.23;3.60;;;;;;;22.30;33.23;101580.69;4896575;29;21056;-68
2023/06/05 05:15:13;;;;;;;11.43;3.07;;;;;;;22.81;32.95;101596.53;4896058;29;20456;-68
2023/06/05 05:17:42;;;;;;;5.80;3.10;;;;;;;23.12;32.47;101591.19;4899779;29;20445;-68
2023/06/05 05:20:13;;;;;;;3.70;3.17;;;;;;;22.94;32.26;101587.81;4894953;29;20446;-69
2023/06/05 05:22:43;;;;;;;4.83;3.80;;;;;;;22.65;32.79;101592.00;4896928;29;20437;-68
2023/06/05 05:25:12;;;;;;;7.77;3.20;;;;;;;23.05;32.41;101583.16;4896276;29;20479;-69
2023/06/05 05:27:41;;;;;;;5.30;2.20;;;;;;;23.46;31.88;101583.34;4941214;23;20456;-67
2023/06/05 05:30:12;;;;;;;2.73;2.47;;;;;;;23.86;31.29;101585.41;4898509;29;20451;-68
2023/06/05 05:32:41;;;;;;;4.47;3.27;;;;;;;23.16;31.90;101584.03;4898233;29;20446;-68
2023/06/05 05:35:14;;;;;;;4.97;2.50;;;;;;;21.64;34.66;101585.53;4900323;29;20456;-68
2023/06/05 05:37:43;;;;;;;5.53;4.13;;;;;;;19.78;37.75;101598.13;4901918;29;20442;-67
2023/06/05 05:40:13;;;;;;;5.50;3.80;;;;;;;18.94;39.46;101591.41;4896897;29;20470;-68
2023/06/05 05:42:43;;;;;;;7.80;2.90;;;;;;;18.44;40.71;101591.06;4903845;29;20424;-67
2023/06/05 05:45:12;;;;;;;7.50;3.40;;;;;;;18.20;41.83;101584.72;4897266;29;20485;-68
2023/06/05 05:47:41;;;;;;;4.07;2.43;;;;;;;18.17;41.75;101593.41;4899439;29;20417;-67
2023/06/05 05:50:11;;;;;;;5.53;3.10;;;;;;;18.05;41.76;101598.88;4904339;29;20436;-68
2023/06/05 05:52:43;;;;;;;7.23;2.60;;;;;;;18.06;42.01;101594.19;4899136;29;20521;-66
2023/06/05 05:55:12;;;;;;;6.60;3.50;;;;;;;18.16;42.12;101605.41;4900230;29;20442;-68
2023/06/05 05:57:43;;;;;;;5.93;3.17;;;;;;;18.42;41.73;101606.91;4900633;29;20417;-68
2023/06/05 06:00:13;;;;;;;7.10;3.37;;;;;;;18.29;42.10;101605.22;4902793;29;20526;-68
2023/06/05 06:02:43;;;;;;;4.07;2.83;;;;;;;18.43;41.86;101606.66;4898948;29;20478;-67
2023/06/05 06:05:12;;;;;;;10.20;2.90;;;;;;;18.44;41.92;101613.81;4899138;29;20441;-68
2023/06/05 06:07:42;;;;;;;5.00;3.43;;;;;;;18.51;42.01;101609.06;4901281;29;20409;-64
2023/06/05 06:10:13;;;;;;;6.23;3.40;;;;;;;18.69;41.50;101610.06;4903315;29;20404;-69
2023/06/05 06:12:42;;;;;;;5.20;3.07;;;;;;;18.78;41.45;101614.09;4900467;29;20441;-66
2023/06/05 06:15:12;;;;;;;11.23;3.93;;;;;;;19.00;41.07;101609.66;4898967;29;20436;-67
2023/06/05 06:17:41;;;;;;;5.53;3.37;;;;;;;19.06;40.56;101617.78;4909606;29;20408;-66
2023/06/05 06:20:12;;;;;;;5.97;3.37;;;;;;;19.14;40.52;101624.78;4898348;29;20414;-66
2023/06/05 06:22:44;;;;;;;5.20;3.27;;;;;;;19.28;40.40;101620.69;4905285;29;20409;-67
2023/06/05 06:25:15;;;;;;;9.77;3.00;;;;;;;19.42;40.45;101627.59;4898074;29;20463;-66
2023/06/05 06:27:48;;;;;;;5.03;2.80;;;;;;;19.49;39.92;101625.56;4898257;29;20409;-66
2023/06/05 06:30:17;;;;;;;4.93;2.53;;;;;;;19.51;39.88;101620.66;4900184;29;20520;-69
2023/06/05 06:32:47;;;;;;;5.37;3.37;;;;;;;19.45;40.00;101623.56;4900047;29;20485;-69
2023/06/05 06:35:16;;;;;;;4.13;2.83;;;;;;;19.44;39.82;101625.47;4906123;29;20458;-67
2023/06/05 06:37:47;;;;;;;4.70;3.23;;;;;;;19.57;40.64;101629.00;4899986;29;20964;-67
2023/06/05 06:40:16;;;;;;;7.60;2.53;;;;;;;19.78;40.25;101625.59;4903557;29;20408;-66
2023/06/05 06:42:45;;;;;;;7.37;3.00;;;;;;;20.09;39.69;101627.00;4899372;29;20771;-68
2023/06/05 06:45:24;;;;;;;7.73;3.80;;;;;;;20.16;39.96;101628.50;4896991;29;20853;-66
2023/06/05 06:47:53;;;;;;;4.80;3.20;;;;;;;20.26;39.28;101634.16;4903372;29;20450;-69
2023/06/05 06:50:36;;;;;;;7.53;3.80;;;;;;;20.18;39.20;101631.84;4909089;29;20517;-69
2023/06/05 06:53:06;;;;;;;4.60;3.40;;;;;;;20.24;39.32;101638.22;4905834;29;20516;-68
2023/06/05 06:55:35;;;;;;;5.43;2.73;;;;;;;20.39;39.60;101638.53;4900545;29;20471;-67
2023/06/05 06:58:04;;;;;;;5.10;2.67;;;;;;;20.26;39.84;101642.41;4903015;29;20449;-68
2023/06/05 07:00:33;;;;;;;7.70;3.87;;;;;;;20.45;40.02;101636.72;4906940;29;20504;-67
2023/06/05 07:03:03;;;;;;;8.90;2.83;;;;;;;20.63;39.21;101636.44;4911147;29;20428;-67
2023/06/05 07:05:32;;;;;;;4.47;2.93;;;;;;;20.68;38.82;101636.53;4907067;29;20496;-66
2023/06/05 07:08:01;;;;;;;9.40;2.70;;;;;;;20.79;38.35;101632.84;4906409;29;20434;-68
2023/06/05 07:10:32;;;;;;;7.60;3.30;;;;;;;20.84;38.51;101624.69;4905060;29;20831;-65
2023/06/05 07:13:01;;;;;;;8.53;2.37;;;;;;;20.89;38.63;101627.50;4906523;29;20470;-67
2023/06/05 07:15:30;;;;;;;5.53;2.10;;;;;;;21.24;38.36;101635.47;4906637;29;20463;-66
2023/06/05 07:18:00;;;;;;;4.87;2.97;;;;;;;21.57;37.53;101640.84;4899663;29;20532;-68
2023/06/05 07:20:29;;;;;;;8.50;3.03;;;;;;;21.82;36.82;101632.03;4900402;29;20426;-67
2023/06/05 07:22:59;;;;;;;10.17;3.40;;;;;;;21.72;36.26;101631.09;4908424;29;20629;-68
2023/06/05 07:25:28;;;;;;;5.83;2.43;;;;;;;21.62;35.89;101626.31;4900916;29;20439;-67
2023/06/05 07:27:59;;;;;;;6.37;3.27;;;;;;;21.73;36.48;101628.09;4899383;29;20454;-66
2023/06/05 07:30:29;;;;;;;4.00;2.70;;;;;;;21.72;36.90;101625.59;4898326;29;20434;-67
2023/06/05 07:32:58;;;;;;;6.53;2.97;;;;;;;21.77;36.72;101625.63;4890244;29;20470;-69
2023/06/05 07:35:27;;;;;;;5.63;3.00;;;;;;;21.94;35.95;101629.16;4896242;29;20469;-66
2023/06/05 07:37:56;;;;;;;3.77;2.90;;;;;;;21.91;36.65;101627.72;4905773;29;20775;-67
2023/06/05 07:40:25;;;;;;;7.10;3.10;;;;;;;22.19;34.68;101631.31;4898518;29;20438;-66
2023/06/05 07:42:54;;;;;;;6.67;2.63;;;;;;;22.04;35.12;101627.34;4898906;29;20460;-67
2023/06/05 07:45:25;;;;;;;10.97;2.97;;;;;;;22.15;35.46;101631.03;4895373;29;20973;-66
2023/06/05 07:47:54;;;;;;;5.07;2.47;;;;;;;22.38;33.86;101625.16;4900021;29;20434;-68
2023/06/05 07:50:23;;;;;;;7.27;3.30;;;;;;;22.64;33.15;101623.44;4901105;29;20456;-67
2023/06/05 07:52:52;;;;;;;5.03;3.20;;;;;;;22.90;31.83;101625.28;4896056;29;20438;-69
2023/06/05 07:55:21;;;;;;;8.20;3.53;;;;;;;22.83;32.77;101632.16;4900444;29;20442;-67
2023/06/05 07:57:53;;;;;;;4.63;3.33;;;;;;;22.67;32.83;101622.06;4901597;29;20910;-67
2023/06/05 08:00:24;;;;;;;4.03;2.77;;;;;;;22.86;33.46;101626.94;4895745;29;20441;-69
2023/06/05 08:03:19;;;;;;;9.20;3.53;;;;;;;22.71;33.33;101624.06;4902775;29;20450;-67
2023/06/05 08:05:50;;;;;;;13.23;2.87;;;;;;;23.04;32.85;101620.16;4901326;29;20505;-66
2023/06/05 08:08:20;;;;;;;4.53;2.67;;;;;;;23.12;32.19;101624.31;4902193;29;20500;-67
2023/06/05 08:10:49;;;;;;;5.17;2.80;;;;;;;22.95;31.54;101630.00;4894963;29;20437;-65
2023/06/05 08:13:18;;;;;;;10.77;3.03;;;;;;;23.01;32.06;101617.06;4900243;29;20473;-68
2023/06/05 08:15:49;;;;;;;3.90;2.53;;;;;;;23.02;32.10;101618.75;4901074;29;20440;-66
2023/06/05 08:18:18;;;;;;;6.97;2.47;;;;;;;23.04;32.23;101616.56;4895301;29;20443;-65
2023/06/05 08:20:47;;;;;;;4.23;2.60;;;;;;;23.27;31.54;101613.34;4901196;29;20436;-68
2023/06/05 08:23:16;;;;;;;7.83;3.27;;;;;;;23.52;31.67;101613.50;4898155;29;20438;-67
2023/06/05 08:25:48;;;;;;;6.43;2.90;;;;;;;23.38;30.88;101613.13;4901222;29;20482;-67
2023/06/05 08:28:17;;;;;;;9.93;2.67;;;;;;;23.16;30.59;101609.72;4896377;29;20509;-67
2023/06/05 08:30:48;;;;;;;5.67;2.57;;;;;;;23.36;30.86;101611.75;4904226;29;20443;-68
2023/06/05 08:33:17;;;;;;;4.17;2.50;;;;;;;23.51;29.81;101614.59;4901039;29;20442;-66
2023/06/05 08:35:55;;;;;;;5.70;3.10;;;;;;;23.43;30.65;101603.22;4910975;29;20462;-66
2023/06/05 08:38:24;;;;;;;5.63;2.20;;;;;;;23.62;29.59;101607.19;4903304;29;20423;-67
2023/06/05 08:41:00;;;;;;;4.43;2.30;;;;;;;23.32;29.13;101607.88;4900105;29;20453;-67
2023/06/05 08:43:30;;;;;;;5.03;2.17;;;;;;;23.16;29.96;101603.34;4904108;29;20401;-68
2023/06/05 08:46:00;;;;;;;3.13;1.93;;;;;;;23.27;29.88;101605.06;4903403;29;20463;-66
2023/06/05 08:48:34;;;;;;;5.30;3.30;;;;;;;23.36;29.63;101603.44;4898277;29;20494;-69
2023/06/05 08:51:03;;;;;;;10.03;2.53;;;;;;;23.13;29.36;101598.38;4901191;29;20429;-67
2023/06/05 08:53:35;;;;;;;7.27;2.47;;;;;;;23.17;29.83;101605.84;4902349;29;20430;-68
2023/06/05 08:56:04;;;;;;;4.90;2.13;;;;;;;23.44;29.70;101599.31;4898566;29;20832;-66
2023/06/05 08:58:34;;;;;;;6.30;2.57;;;;;;;23.62;29.09;101602.47;4901655;29;20494;-66
2023/06/05 09:01:05;;;;;;;4.50;1.97;;;;;;;23.64;28.71;101591.13;4894412;29;20469;-66
2023/06/05 09:03:34;;;;;;;3.13;2.10;;;;;;;23.43;29.05;101595.72;4901108;29;20944;-66
2023/06/05 09:06:04;;;;;;;13.07;3.50;;;;;;;23.66;28.22;101589.78;4905078;29;20442;-66
2023/06/05 09:08:34;;;;;;;6.63;2.63;;;;;;;23.49;28.37;101597.44;4892918;29;20427;-65
2023/06/05 09:11:26;;;;;;;5.53;1.77;;;;;;;23.53;28.47;101589.47;4898343;29;20490;-67
2023/06/05 09:13:58;;;;;;;4.37;1.80;;;;;;;23.56;28.73;101589.75;4895801;29;20467;-65
2023/06/05 09:16:37;;;;;;;2.90;2.13;;;;;;;24.11;27.36;101594.53;4897852;29;21008;-66
2023/06/05 09:19:07;;;;;;;3.70;1.83;;;;;;;23.89;27.40;101590.38;4897093;29;20437;-68
2023/06/05 09:21:37;;;;;;;5.50;2.20;;;;;;;23.86;28.03;101594.53;4893650;29;20471;-67
2023/06/05 09:24:19;;;;;;;8.13;1.80;;;;;;;24.12;27.84;101595.34;4898147;29;20443;-66
2023/06/05 09:26:58;;;;;;;3.13;1.70;;;;;;;24.01;27.68;101594.53;4896664;29;20864;-66
2023/06/05 09:29:29;;;;;;;2.50;1.90;;;;;;;24.41;28.08;101595.66;4894592;29;20469;-67
2023/06/05 09:32:01;;;;;;;2.97;1.90;;;;;;;24.64;26.92;101595.13;4895159;29;20434;-65
2023/06/05 09:34:36;;;;;;;1.70;1.47;;;;;;;24.63;26.87;101588.75;4892630;29;20497;-66
2023/06/05 09:37:06;;;;;;;7.20;2.20;;;;;;;24.50;26.48;101596.78;4895746;29;20514;-66
2023/06/05 09:39:37;;;;;;;3.60;1.60;;;;;;;24.50;26.80;101597.59;4896669;29;20957;-66
2023/06/05 09:42:06;;;;;;;10.13;2.13;;;;;;;24.42;26.65;101587.09;4896016;29;20431;-66
2023/06/05 09:44:36;;;;;;;3.00;1.93;;;;;;;24.47;27.23;101584.34;4893644;29;20428;-67
2023/06/05 09:47:09;;;;;;;5.00;2.47;;;;;;;24.54;26.90;101581.28;4898180;29;20502;-68
2023/06/05 09:49:48;;;;;;;4.83;2.10;;;;;;;24.35;26.60;101582.97;4897368;29;20474;-67
2023/06/05 09:52:18;;;;;;;4.10;2.40;;;;;;;24.05;26.99;101579.06;4897498;29;20430;-66
2023/06/05 09:54:48;;;;;;;2.47;1.70;;;;;;;24.06;27.33;101575.16;4897126;29;20523;-66
2023/06/05 09:57:17;;;;;;;2.87;2.03;;;;;;;24.03;27.12;101574.91;4896519;29;20930;-65
2023/06/05 09:59:51;;;;;;;4.73;3.10;;;;;;;24.28;26.96;101566.66;4896789;29;20807;-65
2023/06/05 10:02:24;;;;;;;3.30;2.10;;;;;;;24.51;26.80;101577.13;4897346;29;21021;-66
2023/06/05 10:04:57;;;;;;;3.33;2.10;;;;;;;24.41;26.59;101571.59;4897101;29;20425;-66
2023/06/05 10:07:27;;;;;;;3.07;2.00;;;;;;;24.35;26.62;101560.84;4897454;29;20430;-66
2023/06/05 10:09:58;;;;;;;2.47;1.90;;;;;;;24.28;26.55;101568.59;4897339;29;20488;-66
2023/06/05 10:12:28;;;;;;;8.03;2.13;;;;;;;24.44;26.51;101564.72;4895664;29;20465;-66
2023/06/05 10:14:58;;;;;;;2.50;1.80;;;;;;;24.36;26.49;101556.94;4897086;29;20474;-66
2023/06/05 10:17:29;;;;;;;2.47;1.70;;;;;;;24.35;26.61;101560.84;4896816;29;20862;-65
2023/06/05 10:19:59;;;;;;;5.43;1.77;;;;;;;24.44;26.28;101540.63;4894991;29;20461;-66
2023/06/05 10:22:30;;;;;;;4.93;1.70;;;;;;;24.51;26.49;101548.63;4895555;29;20918;-66
2023/06/05 10:25:04;;;;;;;3.17;1.73;;;;;;;24.93;26.06;101548.31;4897045;29;20430;-67
2023/06/05 10:27:53;;;;;;;3.00;1.80;;;;;;;24.76;26.11;101550.53;4900191;29;20507;-65
2023/06/05 10:30:48;;;;;;;5.07;4.57;;;;;;;24.78;26.25;101540.84;4896971;29;20438;-66
2023/06/05 10:33:45;;;;;;;2.70;2.10;;;;;;;24.95;25.96;101540.53;4896829;29;21014;-65
2023/06/05 10:36:26;;;;;;;2.90;1.90;;;;;;;24.96;26.00;101539.41;4896959;29;21004;-66
2023/06/05 10:38:55;;;;;;;5.23;2.40;;;;;;;24.93;26.35;101531.69;4896175;29;20416;-67
2023/06/05 10:41:25;;;;;;;4.20;2.10;;;;;;;25.13;26.02;101530.75;4896611;29;20408;-68
2023/06/05 10:43:55;;;;;;;3.17;2.00;;;;;;;25.08;26.01;101535.19;4894720;29;20502;-69
2023/06/05 10:46:32;;;;;;;2.80;1.90;;;;;;;25.40;26.37;101529.25;4894736;29;20462;-66
2023/06/05 10:49:11;;;;;;;7.33;2.33;;;;;;;25.70;25.08;101532.97;4894697;29;20438;-67
2023/06/05 10:51:43;;;;;;;4.40;2.30;;;;;;;25.62;24.95;101523.31;4894753;29;20442;-65
2023/06/05 10:54:16;;;;;;;2.20;1.73;;;;;;;25.43;25.00;101522.28;4895218;29;20949;-66
2023/06/05 10:56:59;;;;;;;5.03;2.03;;;;;;;25.30;25.62;101515.44;4893877;29;20514;-67
2023/06/05 10:59:30;;;;;;;3.60;1.70;;;;;;;25.12;25.50;101521.63;4895964;29;20430;-67
2023/06/05 11:02:25;;;;;;;3.50;3.20;;;;;;;25.03;25.73;101518.59;4894541;29;20430;-64
2023/06/05 11:05:12;;;;;;;3.00;1.97;;;;;;;25.20;25.70;101528.50;4894143;29;20770;-69
2023/06/05 11:07:45;;;;;;;4.20;3.50;;;;;;;25.64;25.32;101517.47;4895464;29;20463;-66
2023/06/05 11:10:20;;;;;;;3.20;2.13;;;;;;;25.80;25.32;101519.84;4896293;29;20470;-66
2023/06/05 11:13:00;;;;;;;6.80;2.40;;;;;;;25.91;24.90;101518.66;4896829;29;20451;-66
2023/06/05 11:15:45;;;;;;;4.00;2.20;;;;;;;25.95;24.59;101519.72;4895296;29;20904;-63
2023/06/05 11:18:35;;;;;;;2.60;2.40;;;;;;;25.65;25.23;101519.97;4895614;29;20434;-67
2023/06/05 11:21:06;;;;;;;3.27;2.70;;;;;;;25.29;24.95;101511.00;4893759;29;20656;-67
2023/06/05 11:23:35;;;;;;;2.60;2.20;;;;;;;25.20;25.58;101515.50;4892149;29;20455;-67
2023/06/05 11:26:42;;;;;;;2.40;2.10;;;;;;;25.18;25.11;101506.63;4894091;29;20458;-68
2023/06/05 11:29:15;;;;;;;4.20;3.00;;;;;;;25.38;25.27;101503.75;4936137;23;20847;-67
2023/06/05 11:31:46;;;;;;;4.73;2.70;;;;;;;25.71;25.04;101501.34;4876689;29;20450;-66
2023/06/05 11:34:16;;;;;;;2.50;2.00;;;;;;;25.30;25.47;101495.22;4907108;29;20457;-66
2023/06/05 11:36:47;;;;;;;2.57;2.37;;;;;;;25.52;25.15;101501.16;4876952;29;20510;-66
2023/06/05 11:39:16;;;;;;;6.23;3.33;;;;;;;25.36;24.63;101494.91;4876543;29;20769;-66
2023/06/05 11:41:47;;;;;;;4.17;2.67;;;;;;;25.86;24.36;101501.22;4874211;29;20564;-66
2023/06/05 11:44:16;;;;;;;3.03;2.30;;;;;;;26.04;24.39;101496.94;4873968;29;20442;-66